Weather History for KPTT - May, 2014

Change the Weather History Date:

Sunday, May 4, 2014

  Actual Average (KP28) Record (KP28)
Temperature  
Mean Temperature 73 °F 63 °F  
Max Temperature 98 °F 75 °F 103 °F (2014)
Min Temperature 48 °F 51 °F 32 °F (2013)
Degree Days  
Heating Degree Days 0 4  
Month to date heating degree days 18  
Since 1 July heating degree days 4403  
Cooling Degree Days 8 2  
Month to date cooling degree days 7  
Year to date cooling degree days 31  
Growing Degree Days 23 (Base 50)    
Moisture  
Dew Point 30 °F    
Average Humidity 22    
Maximum Humidity 54    
Minimum Humidity 8    
Precipitation  
Precipitation 0.00 in 0.10 in 2.25 in (1938)
Month to date precipitation 0.42  
Year to date precipitation 6.86  
Snow  
Snow 0.00 in 0.00 in - ()
Month to date snowfall 0.0  
Since 1 July snowfall 8.5  
Snow Depth -    
Sea Level Pressure  
Sea Level Pressure 29.75 in    
Wind  
Wind Speed 13 mph (SSW)    
Max Wind Speed 21 mph    
Max Gust Speed 31 mph    
Visibility 10 miles    
Events      
T = Trace of Precipitation, MM = Missing Value Source: NWS Daily Summary

Daily Weather History Graph

Daily Weather History Graph

Search for Another Location

Airport or City:

Trip Planner

Search our weather history database for the weather conditions in past years. The results will help you decide how hot, cold, wet, or windy it might be!

Date:

Astronomy

May. 04, 2014 Rise Set
Actual Time 6:35 AM CDT 8:28 PM CDT
Civil Twilight 6:07 AM CDT 8:56 PM CDT
Nautical Twilight 5:33 AM CDT 9:31 PM CDT
Astronomical Twilight 4:56 AM CDT 10:08 PM CDT
Moon 11:01 AM CDT (5/4) 12:33 AM CDT (5/4)
Length of Visible Light 14h 49m
Length of Day
13h 52m
Waxing Crescent, 28% of the Moon is Illuminated
May 4
Waxing Crescent
May 6
First Quarter
May 14
Full
May 21
Last Quarter
May 28
New

Hourly Weather History & Observations

Time (CDT) Temp. Dew Point Humidity Pressure Visibility Wind Dir Wind Speed Gust Speed Precip Events Conditions
12:15 AM 69.8 °F 30.2 °F 23% 29.86 in 10.0 mi South 13.8 mph 17.3 mph N/A   Clear
12:35 AM 68.0 °F 30.2 °F 24% 29.86 in 10.0 mi South 15.0 mph - N/A   Clear
12:55 AM 68.0 °F 30.2 °F 24% 29.86 in 10.0 mi South 12.7 mph - N/A   Clear
1:15 AM 68.0 °F 32.0 °F 26% 29.86 in 10.0 mi South 13.8 mph - N/A   Clear
1:35 AM 66.2 °F 32.0 °F 28% 29.86 in 10.0 mi South 13.8 mph - N/A   Clear
1:55 AM 64.4 °F 32.0 °F 30% 29.85 in 10.0 mi South 13.8 mph - N/A   Clear
2:15 AM 64.4 °F 32.0 °F 30% 29.84 in 10.0 mi South 12.7 mph - N/A   Clear
2:35 AM 62.6 °F 32.0 °F 32% 29.84 in 10.0 mi South 11.5 mph - N/A   Clear
2:55 AM 62.6 °F 32.0 °F 32% 29.83 in 10.0 mi South 10.4 mph - N/A   Clear
3:15 AM 60.8 °F 32.0 °F 34% 29.82 in 10.0 mi South 10.4 mph - N/A   Clear
3:35 AM 59.0 °F 32.0 °F 36% 29.82 in 10.0 mi South 10.4 mph - N/A   Clear
3:55 AM 55.4 °F 32.0 °F 41% 29.81 in 10.0 mi South 11.5 mph - N/A   Clear
4:15 AM 55.4 °F 32.0 °F 41% 29.81 in 10.0 mi South 10.4 mph - N/A   Clear
4:35 AM 55.4 °F 32.0 °F 41% 29.81 in 10.0 mi South 10.4 mph - N/A   Clear
4:55 AM 53.6 °F 32.0 °F 44% 29.81 in 10.0 mi South 10.4 mph - N/A   Clear
5:15 AM 51.8 °F 32.0 °F 47% 29.80 in 10.0 mi South 10.4 mph - N/A   Clear
5:35 AM 51.8 °F 32.0 °F 47% 29.80 in 10.0 mi South 9.2 mph - N/A   Clear
5:55 AM 51.8 °F 32.0 °F 47% 29.80 in 10.0 mi South 8.1 mph - N/A   Clear
6:15 AM 50.0 °F 32.0 °F 50% 29.79 in 10.0 mi South 6.9 mph - N/A   Clear
6:35 AM 48.2 °F 32.0 °F 54% 29.79 in 10.0 mi SSW 6.9 mph - N/A   Clear
6:55 AM 48.2 °F 32.0 °F 54% 29.79 in 10.0 mi SSW 10.4 mph - N/A   Clear
7:15 AM 50.0 °F 33.8 °F 54% 29.79 in 10.0 mi SSW 6.9 mph - N/A   Clear
7:35 AM 53.6 °F 33.8 °F 47% 29.79 in 10.0 mi South 9.2 mph - N/A   Clear
7:55 AM 59.0 °F 32.0 °F 36% 29.79 in 10.0 mi SSW 11.5 mph - N/A   Clear
8:15 AM 60.8 °F 32.0 °F 34% 29.78 in 10.0 mi SSW 13.8 mph - N/A   Clear
8:35 AM 64.4 °F 32.0 °F 30% 29.78 in 10.0 mi SSW 13.8 mph - N/A   Clear
8:55 AM 69.8 °F 30.2 °F 23% 29.78 in 10.0 mi SW 15.0 mph - N/A   Clear
9:15 AM 71.6 °F 30.2 °F 22% 29.78 in 10.0 mi SW 15.0 mph - N/A   Clear
9:35 AM 73.4 °F 30.2 °F 20% 29.78 in 10.0 mi SW 15.0 mph - N/A   Clear
9:55 AM 77.0 °F 28.4 °F 17% 29.78 in 10.0 mi SW 16.1 mph - N/A   Clear
10:15 AM 80.6 °F 28.4 °F 15% 29.78 in 10.0 mi WSW 15.0 mph - N/A   Clear
10:35 AM 80.6 °F 28.4 °F 15% 29.77 in 10.0 mi SW 15.0 mph - N/A   Clear
10:55 AM 82.4 °F 30.2 °F 15% 29.78 in 10.0 mi SW 11.5 mph 18.4 mph N/A   Clear
11:15 AM 86.0 °F 28.4 °F 12% 29.78 in 10.0 mi SW 13.8 mph - N/A   Clear
11:35 AM 86.0 °F 30.2 °F 13% 29.78 in 10.0 mi SSW 15.0 mph - N/A   Clear
11:55 AM 87.8 °F 30.2 °F 13% 29.78 in 10.0 mi SW 13.8 mph 21.9 mph N/A   Clear
12:15 PM 87.8 °F 30.2 °F 13% 29.78 in 10.0 mi SW 12.7 mph 18.4 mph N/A   Clear
12:35 PM 89.6 °F 32.0 °F 13% 29.77 in 10.0 mi SSW 9.2 mph 17.3 mph N/A   Clear
12:55 PM 91.4 °F 30.2 °F 11% 29.76 in 10.0 mi SSW 15.0 mph 18.4 mph N/A   Clear
1:15 PM 91.4 °F 32.0 °F 12% 29.75 in 10.0 mi SSW 16.1 mph - N/A   Clear
1:35 PM 93.2 °F 30.2 °F 11% 29.75 in 10.0 mi SSW 16.1 mph 21.9 mph N/A   Clear
1:55 PM 95.0 °F 30.2 °F 10% 29.74 in 10.0 mi SSW 17.3 mph 21.9 mph N/A   Clear
2:15 PM 95.0 °F 32.0 °F 11% 29.74 in 10.0 mi SW 15.0 mph 23.0 mph N/A   Clear
2:35 PM 96.8 °F 33.8 °F 11% 29.73 in 10.0 mi WSW 13.8 mph 20.7 mph N/A   Clear
2:55 PM 96.8 °F 32.0 °F 10% 29.73 in 10.0 mi WSW 13.8 mph 21.9 mph N/A   Clear
3:15 PM 96.8 °F 30.2 °F 10% 29.71 in 10.0 mi SW 18.4 mph 26.5 mph N/A   Clear
3:35 PM 96.8 °F 32.0 °F 10% 29.71 in 10.0 mi WSW 17.3 mph 23.0 mph N/A   Clear
3:55 PM 98.6 °F 32.0 °F 10% 29.70 in 10.0 mi WSW 17.3 mph 24.2 mph N/A   Clear
4:15 PM 98.6 °F 30.2 °F 9% 29.69 in 10.0 mi WSW 19.6 mph 27.6 mph N/A   Clear
4:35 PM 98.6 °F 28.4 °F 8% 29.68 in 10.0 mi WSW 17.3 mph 28.8 mph N/A   Clear
4:55 PM 98.6 °F 28.4 °F 8% 29.67 in 10.0 mi SW 20.7 mph - N/A   Clear
5:15 PM 96.8 °F 30.2 °F 10% 29.67 in 10.0 mi SW 16.1 mph 31.1 mph N/A   Clear
5:35 PM 98.6 °F 26.6 °F 8% 29.66 in 10.0 mi WSW 16.1 mph 31.1 mph N/A   Clear
5:55 PM 95.0 °F 30.2 °F 10% 29.66 in 10.0 mi WSW 13.8 mph - N/A   Clear
6:15 PM 95.0 °F 28.4 °F 9% 29.66 in 10.0 mi SW 13.8 mph - N/A   Clear
6:35 PM 95.0 °F 32.0 °F 11% 29.65 in 10.0 mi WSW 9.2 mph - N/A   Clear
6:55 PM 89.6 °F 33.8 °F 14% 29.65 in 10.0 mi SW 8.1 mph - N/A   Clear
7:15 PM 87.8 °F 35.6 °F 16% 29.65 in 10.0 mi WNW 6.9 mph - N/A   Clear
7:35 PM 89.6 °F 32.0 °F 13% 29.66 in 10.0 mi ESE 3.5 mph - N/A   Clear
7:55 PM 89.6 °F 28.4 °F 11% 29.66 in 10.0 mi East 3.5 mph - N/A   Clear
8:15 PM 87.8 °F 28.4 °F 12% 29.66 in 10.0 mi West 4.6 mph - N/A   Clear
8:35 PM 86.0 °F 30.2 °F 13% 29.67 in 5.0 mi SW 4.6 mph - N/A   Haze
8:55 PM 82.4 °F 28.4 °F 14% 29.68 in 10.0 mi SW 8.1 mph - N/A   Clear
9:15 PM 82.4 °F 24.8 °F 12% 29.68 in 10.0 mi South 11.5 mph 18.4 mph N/A   Clear
9:35 PM 82.4 °F 23.0 °F 11% 29.69 in 10.0 mi SSW 11.5 mph 19.6 mph N/A   Clear
9:55 PM 82.4 °F 23.0 °F 11% 29.69 in 10.0 mi South 19.6 mph - N/A   Clear
10:15 PM 78.8 °F 26.6 °F 15% 29.71 in 10.0 mi WSW 11.5 mph - N/A   Clear
10:35 PM 73.4 °F 26.6 °F 18% 29.71 in 10.0 mi SW 12.7 mph - N/A   Clear
10:55 PM 78.8 °F 23.0 °F 13% 29.71 in 10.0 mi SSW 15.0 mph - N/A   Clear
11:15 PM 77.0 °F 23.0 °F 13% 29.72 in 10.0 mi SSW 12.7 mph - N/A   Clear
11:35 PM 73.4 °F 23.0 °F 15% 29.71 in 10.0 mi SW 10.4 mph - N/A   Clear
11:55 PM 69.8 °F 23.0 °F 17% 29.71 in 10.0 mi SW 8.1 mph - N/A   Clear